METAR / TAF

Die METAR- und TAF-Liste ist aus technischen Gründen (Verfügbarkeit, Update-Zyklen) nicht für ein Meteo-Briefing gedacht. Benutzen Sie stattdessen skybriefing der Skyguide  oder das TAMSI (MeteoSchweiz-eigene Meteo Selfbriefing-Plattform für Firmen aus der Aviatik; Anfragen über das

Kontaktformular

METAR Schweiz

METAR     LSZH 250650Z VRB02KT CAVOK 19/15 Q1021 NOSIG=
METAR     LSZH 250720Z VRB02KT CAVOK 20/16 Q1021 NOSIG=
METAR     LSGG 250650Z VRB02KT CAVOK 21/17 Q1020 NOSIG=
METAR     LSGG 250720Z VRB01KT CAVOK 23/18 Q1020 NOSIG=
METAR     LFSB 250730Z 11005KT 080V160 CAVOK 23/16 Q1019 NOSIG=
METAR     LSZB 250650Z 11003KT CAVOK 20/17 Q1020 NOSIG=
METAR     LSZB 250720Z 12005KT CAVOK 21/18 Q1020 NOSIG=
METAR     LSZA 250650Z VRB01KT 9999 OVC055 20/18 Q1022 NOSIG=
METAR     LSZA 250720Z VRB01KT 9999 OVC055 21/18 Q1022 NOSIG=
METAR     LSZG 250650Z 00000KT CAVOK 19/17 Q1020 NOSIG=
METAR     LSZG 250720Z VRB01KT CAVOK 19/17 Q1020 NOSIG=
METAR     LSZR 250650Z 28006KT CAVOK 18/15 Q1021 NOSIG RMK C=
METAR     LSZR 250720Z 28004KT CAVOK 18/15 Q1021 NOSIG RMK D=
METAR     LSGS 250650Z 09004KT CAVOK 20/13 Q1022=
METAR     LSGS 250720Z 07004KT 040V100 CAVOK 21/13 Q1022=
METAR     LSGC 250650Z VRB01KT CAVOK 19/16 Q1023=
METAR     LSGC 250720Z VRB01KT CAVOK 22/16 Q1023=
METAR     LSZC 250650Z 26004KT 200V350 CAVOK 18/15 Q1021=
METAR     LSZC 250720Z 21002KT 150V300 CAVOK 20/16 Q1021=
METAR     LSZL 250650Z 00000KT 9999 OVC060 21/19 Q1022 RMK BLU=
METAR     LSZL 250720Z NIL=
METAR     LSZS 250650Z 16001KT CAVOK 06/06 Q1029=
METAR     LSZS 250720Z 00000KT CAVOK 09/09 Q1028=
METAR     LSMA 250650Z VRB02KT CAVOK 19/17 Q1021 RMK BLU=
METAR     LSMA NIL=
METAR     LSMD 250650Z VRB01KT CAVOK 19/15 Q1021 RMK BLU=
METAR     LSMD NIL=
METAR     LSME 250650Z 00000KT CAVOK 19/17 Q1021 RMK BLU=
METAR     LSME NIL=
METAR RRA LSMM 250650Z 00000KT CAVOK 19/15 Q1022 RMK BLU=
METAR     LSMM NIL=
METAR     LSMP 250650Z VRB02KT CAVOK 20/17 Q1020 RMK BLU=
METAR     LSMP NIL=
METAR     LSMS 250650Z 09004KT CAVOK 20/13 Q1022=
METAR     LSMS NIL=
Aktualisiert am Donnerstag, 25. August 2016, 09:46 Uhr

TAF Schweiz

TAF     LSZH 250525Z 2506/2612 32004KT CAVOK TX30/2515Z TN18/2506Z
             TN15/2604Z PROB30 2603/2606 4000 MIFG NSC=
TAF     LSGG 250525Z 2506/2612 VRB03KT CAVOK TX31/2514Z TN16/2506Z
             TN17/2604Z BECMG 2508/2510 06005KT PROB30 TEMPO
             2512/2516 23006KT BECMG 2517/2519 VRB03KT BECMG
             2608/2610 06005KT=
TAF     LFSB 250500Z 2506/2606 VRB04KT CAVOK=
TAF     LSGS 250525Z 2506/2515 VRB03KT CAVOK BECMG 2510/2512
             27012KT=
TAF     LSZA 250525Z 2506/2515 VRB03KT 9999 FEW040 BKN060 BECMG
             2507/2510 CAVOK=
TAF     LSZB 250525Z 2506/2515 VRB03KT 9999 MIFG NSC BECMG
             2506/2509 CAVOK=
TAF     LSZG 250525Z 2506/2515 VRB03KT 4000 MIFG BECMG 2506/2509
             CAVOK=
TAF     LSZL 250525Z 2506/2515 VRB03KT 9999 BKN060 BECMG 2507/2510
             CAVOK=
TAF     LSZR 250525Z 2506/2515 VRB03KT CAVOK PROB30 2506/2509 9999
             BKN010=
TAF     LSGC 250525Z 2506/2515 VRB03KT CAVOK=
TAF     LSZC 250525Z 2506/2515 VRB03KT CAVOK=
TAF     LSZS 250525Z 2506/2515 VRB03KT 4000 BCFG SCT001 TX24/2515Z
             BECMG 2506/2509 CAVOK BECMG 2509/2512 22010KT=
TAF     LSMA 241625Z 2417/2523 06005KT CAVOK PROB30 2504/2506 3000
             MIFG=
TAF     LSMD 241625Z 2417/2523 10006KT CAVOK BECMG 2416/2419
             VRB03KT PROB40 2503/2506 3000 BCFG SCT002=
TAF     LSME 241625Z 2417/2523 VRB03KT CAVOK PROB30 2504/2506 3000
             MIFG=
TAF     LSMM 241625Z 2417/2523 VRB03KT CAVOK PROB30 2504/2506 3000
             MIFG=
TAF     LSMP 250525Z 2506/2612 VRB03KT CAVOK PROB30 TEMPO 2510/2517
             23006KT=
Aktualisiert am Donnerstag, 25. August 2016, 09:37 Uhr